createdAt,value
2023-01-20T00:01:30.287Z,0.00
2023-01-20T00:03:58.462Z,0.00
2023-01-20T00:06:29.689Z,0.00
2023-01-20T00:09:00.567Z,0.00
2023-01-20T00:11:28.372Z,0.00
2023-01-20T00:13:56.762Z,0.00
2023-01-20T00:16:23.896Z,0.00
2023-01-20T00:18:51.096Z,0.00
2023-01-20T00:21:18.337Z,0.00
2023-01-20T00:23:46.657Z,0.00
2023-01-20T00:26:16.434Z,0.00
2023-01-20T00:28:44.516Z,0.00
2023-01-20T00:31:15.407Z,0.00
2023-01-20T00:33:42.432Z,0.00
2023-01-20T00:36:10.697Z,0.00
2023-01-20T00:38:37.417Z,0.00
2023-01-20T00:41:04.566Z,0.00
2023-01-20T00:43:31.309Z,0.00
2023-01-20T00:45:58.307Z,0.00
2023-01-20T00:48:25.086Z,0.00
2023-01-20T00:50:51.835Z,0.10
2023-01-20T00:53:18.753Z,0.10
2023-01-20T00:55:46.303Z,0.10
2023-01-20T00:58:13.137Z,0.10
2023-01-20T01:00:39.990Z,0.10
2023-01-20T01:03:06.765Z,0.10
2023-01-20T01:05:51.254Z,0.20
2023-01-20T01:08:17.963Z,0.20
2023-01-20T01:10:44.737Z,0.20
2023-01-20T01:13:11.513Z,0.10
2023-01-20T01:15:38.205Z,0.10
2023-01-20T01:18:05.354Z,0.10
2023-01-20T01:20:32.056Z,0.10
2023-01-20T01:22:58.993Z,0.10
2023-01-20T01:25:25.761Z,0.10
2023-01-20T01:27:52.472Z,0.10
2023-01-20T01:30:20.375Z,0.10
2023-01-20T01:32:47.668Z,0.10
2023-01-20T01:35:14.607Z,0.10
2023-01-20T01:37:41.535Z,0.10
2023-01-20T01:40:09.262Z,0.10
2023-01-20T01:42:39.656Z,0.10
2023-01-20T01:45:10.369Z,0.10
2023-01-20T01:47:48.359Z,0.10
2023-01-20T01:50:30.985Z,0.10
2023-01-20T01:52:57.866Z,0.10
2023-01-20T01:55:29.528Z,0.10
2023-01-20T01:57:58.365Z,0.10
2023-01-20T02:00:25.173Z,0.00
2023-01-20T02:02:52.553Z,0.00
2023-01-20T02:05:19.881Z,0.10
2023-01-20T02:07:49.160Z,0.00
2023-01-20T02:10:16.626Z,0.10
2023-01-20T02:12:47.333Z,0.10
2023-01-20T02:15:14.609Z,0.10
2023-01-20T02:17:53.955Z,0.10
2023-01-20T02:20:49.895Z,0.10
2023-01-20T02:23:43.083Z,0.10
2023-01-20T02:26:42.859Z,0.00
2023-01-20T02:29:23.806Z,0.10
2023-01-20T02:32:10.647Z,0.00
2023-01-20T02:34:40.126Z,0.00
2023-01-20T02:37:13.592Z,0.00
2023-01-20T02:39:44.418Z,0.00
2023-01-20T02:42:23.429Z,0.00
2023-01-20T02:44:57.089Z,0.00
2023-01-20T02:47:35.835Z,0.00
2023-01-20T02:50:11.537Z,0.00
2023-01-20T02:52:48.712Z,0.00
2023-01-20T02:55:36.274Z,0.00
2023-01-20T02:58:10.642Z,0.00
2023-01-20T03:00:45.626Z,0.00
2023-01-20T03:03:17.506Z,0.00
2023-01-20T03:05:51.785Z,0.10
2023-01-20T03:08:20.016Z,0.00
2023-01-20T03:10:49.703Z,0.00
2023-01-20T03:13:31.847Z,0.00
2023-01-20T03:16:02.758Z,0.00
2023-01-20T03:18:31.104Z,0.00
2023-01-20T03:20:59.851Z,0.00
2023-01-20T03:23:32.916Z,0.00
2023-01-20T03:26:00.780Z,0.00
2023-01-20T03:28:30.063Z,0.00
2023-01-20T03:30:58.149Z,0.10
2023-01-20T03:33:26.139Z,0.10
2023-01-20T03:35:53.598Z,0.10
2023-01-20T03:38:20.930Z,0.10
2023-01-20T03:40:57.545Z,0.00
2023-01-20T03:43:37.103Z,0.10
2023-01-20T03:46:14.671Z,0.00
2023-01-20T03:48:53.938Z,0.00
2023-01-20T03:52:16.450Z,0.00
2023-01-20T03:54:50.810Z,-0.10
2023-01-20T03:57:22.955Z,-0.10
2023-01-20T03:59:52.425Z,-0.10
2023-01-20T04:02:20.905Z,-0.10
2023-01-20T04:04:50.825Z,-0.10
2023-01-20T04:07:23.284Z,-0.10
2023-01-20T04:10:06.167Z,-0.10
2023-01-20T04:12:33.041Z,-0.10
2023-01-20T04:15:01.157Z,-0.10
2023-01-20T04:17:31.191Z,-0.20
2023-01-20T04:20:10.547Z,-0.20
2023-01-20T04:22:50.795Z,-0.20
2023-01-20T04:25:30.115Z,-0.30
2023-01-20T04:27:56.833Z,-0.20
2023-01-20T04:30:23.728Z,-0.20
2023-01-20T04:32:50.520Z,-0.20
2023-01-20T04:35:19.997Z,-0.20
2023-01-20T04:37:46.673Z,-0.20
2023-01-20T04:40:13.575Z,-0.20
2023-01-20T04:42:40.291Z,-0.20
2023-01-20T04:45:07.508Z,-0.20
2023-01-20T04:47:34.502Z,-0.30
2023-01-20T04:50:01.266Z,-0.30
2023-01-20T04:52:27.942Z,-0.30
2023-01-20T04:54:54.696Z,-0.40
2023-01-20T04:57:21.437Z,-0.40
2023-01-20T04:59:48.223Z,-0.40
2023-01-20T05:02:15.092Z,-0.30
2023-01-20T05:04:41.921Z,-0.50
2023-01-20T05:07:08.669Z,-0.50
2023-01-20T05:09:35.367Z,-0.50
2023-01-20T05:12:02.091Z,-0.50
2023-01-20T05:14:28.984Z,-0.50
2023-01-20T05:16:55.834Z,-0.50
2023-01-20T05:19:22.526Z,-0.50
2023-01-20T05:21:49.295Z,-0.50
2023-01-20T05:24:16.032Z,-0.50
2023-01-20T05:26:42.714Z,-0.50
2023-01-20T05:29:09.403Z,-0.50
2023-01-20T05:31:37.687Z,-0.50
2023-01-20T05:34:05.054Z,-0.50
2023-01-20T05:36:32.823Z,-0.50
2023-01-20T05:38:59.596Z,-0.50
2023-01-20T05:41:26.424Z,-0.50
2023-01-20T05:43:54.113Z,-0.50
2023-01-20T05:46:21.814Z,-0.50
2023-01-20T05:48:48.526Z,-0.50
2023-01-20T05:51:16.187Z,-0.50
2023-01-20T05:53:42.876Z,-0.50
2023-01-20T05:56:12.115Z,-0.50
2023-01-20T05:58:38.819Z,-0.50
2023-01-20T06:01:07.957Z,-0.50
2023-01-20T06:03:35.148Z,-0.50
2023-01-20T06:06:06.944Z,-0.60
2023-01-20T06:08:34.195Z,-0.60
2023-01-20T06:11:01.375Z,-0.70
2023-01-20T06:13:28.092Z,-0.70
2023-01-20T06:15:55.626Z,-0.70
2023-01-20T06:18:23.504Z,-0.70
2023-01-20T06:20:50.376Z,-0.70
2023-01-20T06:23:17.776Z,-0.70
2023-01-20T06:25:44.539Z,-0.70
2023-01-20T06:28:11.258Z,-0.60
2023-01-20T06:30:38.685Z,-0.60
2023-01-20T06:33:10.557Z,-0.60
2023-01-20T06:35:37.967Z,-0.60
2023-01-20T06:38:04.837Z,-0.60
2023-01-20T06:40:31.974Z,-0.60
2023-01-20T06:42:59.088Z,-0.50
2023-01-20T06:45:25.800Z,-0.50
2023-01-20T06:47:52.576Z,-0.50
2023-01-20T06:50:19.581Z,-0.50
2023-01-20T06:52:46.308Z,-0.50
2023-01-20T06:55:13.382Z,-0.50
2023-01-20T06:57:40.422Z,-0.50
2023-01-20T07:00:07.875Z,-0.50
2023-01-20T07:02:34.723Z,-0.50
2023-01-20T07:05:02.483Z,-0.40
2023-01-20T07:07:29.220Z,-0.50
2023-01-20T07:09:55.938Z,-0.40
2023-01-20T07:12:22.815Z,-0.40
2023-01-20T07:14:49.536Z,-0.40
2023-01-20T07:17:16.264Z,-0.40
2023-01-20T07:19:43.037Z,-0.40
2023-01-20T07:22:09.839Z,-0.40
2023-01-20T07:24:36.651Z,-0.40
2023-01-20T07:27:03.393Z,-0.40
2023-01-20T07:29:30.148Z,-0.30
2023-01-20T07:31:56.909Z,-0.30
2023-01-20T07:34:23.907Z,-0.30
2023-01-20T07:36:53.323Z,-0.30
2023-01-20T07:39:22.830Z,-0.30
2023-01-20T07:41:49.780Z,-0.30
2023-01-20T07:44:16.865Z,-0.20
2023-01-20T07:46:43.648Z,-0.20
2023-01-20T07:49:12.351Z,-0.20
2023-01-20T07:51:39.955Z,-0.20
2023-01-20T07:54:06.833Z,-0.20
2023-01-20T07:56:33.661Z,-0.20
2023-01-20T07:59:00.399Z,-0.20
2023-01-20T08:01:29.951Z,-0.20
2023-01-20T08:03:58.058Z,-0.10
2023-01-20T08:06:26.102Z,-0.10
2023-01-20T08:08:53.948Z,-0.10
2023-01-20T08:11:22.278Z,-0.10
2023-01-20T08:13:49.712Z,0.00
2023-01-20T08:16:18.503Z,0.10
2023-01-20T08:18:45.503Z,0.10
2023-01-20T08:21:26.695Z,0.20
2023-01-20T08:23:55.740Z,0.20
2023-01-20T08:26:25.045Z,0.20
2023-01-20T08:28:52.862Z,0.30
2023-01-20T08:31:22.354Z,0.30
2023-01-20T08:33:52.417Z,0.30
2023-01-20T08:36:22.901Z,0.30
2023-01-20T08:38:50.066Z,0.40
2023-01-20T08:41:21.015Z,0.40
2023-01-20T08:43:48.144Z,0.50
2023-01-20T08:46:16.854Z,0.60
2023-01-20T08:48:44.336Z,0.60
2023-01-20T08:51:17.082Z,0.70
2023-01-20T08:53:44.155Z,0.80
2023-01-20T08:56:12.750Z,0.90
2023-01-20T08:58:39.687Z,1.10
2023-01-20T09:01:16.012Z,1.20
2023-01-20T09:03:49.428Z,1.30
2023-01-20T09:06:27.178Z,1.40
2023-01-20T09:08:55.125Z,1.50
2023-01-20T09:11:24.993Z,1.50
2023-01-20T09:13:52.138Z,1.50
2023-01-20T09:16:19.643Z,1.50
2023-01-20T09:18:46.754Z,1.60
2023-01-20T09:21:13.550Z,1.60
2023-01-20T09:23:41.187Z,1.70
2023-01-20T09:26:08.660Z,1.80
2023-01-20T09:28:36.029Z,1.90
2023-01-20T09:31:05.947Z,2.00
2023-01-20T09:33:36.147Z,2.00
2023-01-20T09:36:04.708Z,2.20
2023-01-20T09:38:50.184Z,2.30
2023-01-20T09:41:46.874Z,2.30
2023-01-20T09:44:31.509Z,2.50
2023-01-20T09:47:19.506Z,2.70
2023-01-20T09:50:08.080Z,2.80
2023-01-20T09:52:56.120Z,3.00
2023-01-20T09:55:52.271Z,3.20
2023-01-20T09:58:30.938Z,3.40
2023-01-20T10:01:11.621Z,3.50
2023-01-20T10:03:59.656Z,3.40
2023-01-20T10:06:48.658Z,3.40
2023-01-20T10:09:41.123Z,3.50
2023-01-20T10:12:26.240Z,3.60
2023-01-20T10:15:00.383Z,3.60
2023-01-20T10:17:37.074Z,3.60
2023-01-20T10:20:16.850Z,3.80
2023-01-20T10:23:10.695Z,3.80
2023-01-20T10:25:52.231Z,3.50
2023-01-20T10:28:27.061Z,3.60
2023-01-20T10:30:55.978Z,3.70
2023-01-20T10:33:38.793Z,3.70
2023-01-20T10:36:13.188Z,3.60
2023-01-20T10:38:59.204Z,3.60
2023-01-20T10:41:42.690Z,3.70
2023-01-20T10:44:14.384Z,3.90
2023-01-20T10:47:02.668Z,4.10
2023-01-20T10:49:45.530Z,4.40
2023-01-20T10:52:23.666Z,4.50
2023-01-20T10:55:25.367Z,4.70
2023-01-20T10:58:01.869Z,4.70
2023-01-20T11:00:31.477Z,4.70
2023-01-20T11:03:00.778Z,4.70
2023-01-20T11:05:38.174Z,4.60
2023-01-20T11:08:23.836Z,4.20
2023-01-20T11:10:54.844Z,4.00
2023-01-20T11:13:21.656Z,3.90
2023-01-20T11:15:55.026Z,3.90
2023-01-20T11:18:27.637Z,4.00
2023-01-20T11:21:00.845Z,4.10
2023-01-20T11:23:47.433Z,4.10
2023-01-20T11:26:35.746Z,4.20
2023-01-20T11:29:11.620Z,4.30
2023-01-20T11:31:43.631Z,4.30
2023-01-20T11:34:34.834Z,4.40
2023-01-20T11:37:20.546Z,4.60
2023-01-20T11:39:50.328Z,4.70
2023-01-20T11:42:22.603Z,4.80
2023-01-20T11:44:54.679Z,4.70
2023-01-20T11:47:31.797Z,4.60
2023-01-20T11:50:04.382Z,4.50
2023-01-20T11:52:40.230Z,4.20
2023-01-20T11:55:17.603Z,4.20
2023-01-20T11:57:57.387Z,4.20
2023-01-20T12:00:37.277Z,4.10
2023-01-20T12:03:10.309Z,4.20
2023-01-20T12:05:50.066Z,4.20
2023-01-20T12:08:34.307Z,4.10
2023-01-20T12:11:07.304Z,3.80
2023-01-20T12:14:07.900Z,3.80
2023-01-20T12:16:35.701Z,3.70
2023-01-20T12:19:12.914Z,3.60
2023-01-20T12:21:46.623Z,3.60
2023-01-20T12:24:50.745Z,3.60
2023-01-20T12:27:23.395Z,3.50
2023-01-20T12:29:56.140Z,3.40
2023-01-20T12:32:22.959Z,3.40
2023-01-20T12:34:49.974Z,3.30
2023-01-20T12:37:36.622Z,3.20
2023-01-20T12:40:27.284Z,3.10
2023-01-20T12:43:22.161Z,3.10
2023-01-20T12:45:51.955Z,3.20
2023-01-20T12:48:39.857Z,3.30
2023-01-20T12:51:11.650Z,3.30
2023-01-20T12:53:50.194Z,3.30
2023-01-20T12:56:40.347Z,3.30
2023-01-20T12:59:36.665Z,3.20
2023-01-20T13:02:37.530Z,3.20
2023-01-20T13:05:07.376Z,3.00
2023-01-20T13:08:21.665Z,2.90
2023-01-20T13:11:15.796Z,2.80
2023-01-20T13:14:00.860Z,2.80
2023-01-20T13:16:49.020Z,2.80
2023-01-20T13:19:27.996Z,2.90
2023-01-20T13:22:07.251Z,3.00
2023-01-20T13:24:35.003Z,2.90
2023-01-20T13:27:02.163Z,2.90
2023-01-20T13:29:37.985Z,3.00
2023-01-20T13:32:25.009Z,3.10
2023-01-20T13:34:51.847Z,3.20
2023-01-20T13:37:38.443Z,3.30
2023-01-20T13:40:37.501Z,3.30
2023-01-20T13:43:04.980Z,3.40
2023-01-20T13:45:31.692Z,3.40
2023-01-20T13:48:08.235Z,3.40
2023-01-20T13:50:38.041Z,3.50
2023-01-20T13:53:06.397Z,3.40
2023-01-20T13:55:44.962Z,3.40
2023-01-20T13:58:38.684Z,3.30
2023-01-20T14:01:10.645Z,3.30
2023-01-20T14:03:38.710Z,3.30
2023-01-20T14:06:10.684Z,3.30
2023-01-20T14:08:46.779Z,3.40
2023-01-20T14:11:17.948Z,3.40
2023-01-20T14:13:56.889Z,3.30
2023-01-20T14:16:26.822Z,3.40
2023-01-20T14:18:56.328Z,3.50
2023-01-20T14:21:25.638Z,3.50
2023-01-20T14:23:52.757Z,3.50
2023-01-20T14:26:29.048Z,3.50
2023-01-20T14:28:58.077Z,3.40
2023-01-20T14:31:36.425Z,3.30
2023-01-20T14:34:25.689Z,3.20
2023-01-20T14:36:53.648Z,3.00
2023-01-20T14:39:29.343Z,2.90
2023-01-20T14:41:58.943Z,2.90
2023-01-20T14:44:28.496Z,2.90
2023-01-20T14:47:01.312Z,2.90
2023-01-20T14:49:39.274Z,2.80
2023-01-20T14:52:07.860Z,2.80
2023-01-20T14:54:44.217Z,2.70
2023-01-20T14:57:41.040Z,2.60
2023-01-20T15:00:20.466Z,2.50
2023-01-20T15:03:18.166Z,2.50
2023-01-20T15:05:59.915Z,2.40
2023-01-20T15:08:32.355Z,2.30
2023-01-20T15:11:14.799Z,2.30
2023-01-20T15:14:05.411Z,2.10
2023-01-20T15:16:38.962Z,2.00
2023-01-20T15:19:15.204Z,1.90
2023-01-20T15:21:45.915Z,1.80
2023-01-20T15:24:15.329Z,1.70
2023-01-20T15:26:42.491Z,1.60
2023-01-20T15:29:38.667Z,1.50
2023-01-20T15:32:12.481Z,1.40
2023-01-20T15:34:39.295Z,1.30
2023-01-20T15:37:21.120Z,1.20
2023-01-20T15:39:47.867Z,1.10
2023-01-20T15:42:15.523Z,1.10
2023-01-20T15:44:42.265Z,1.00
2023-01-20T15:47:26.146Z,0.90
2023-01-20T15:49:52.980Z,0.80
2023-01-20T15:52:19.768Z,0.70
2023-01-20T15:54:46.511Z,0.60
2023-01-20T15:57:14.805Z,0.50
2023-01-20T15:59:46.089Z,0.40
2023-01-20T16:02:21.409Z,0.30
2023-01-20T16:04:48.208Z,0.10
2023-01-20T16:07:18.287Z,0.00
2023-01-20T16:09:46.701Z,-0.10
2023-01-20T16:12:18.323Z,-0.10
2023-01-20T16:14:45.730Z,-0.20
2023-01-20T16:17:20.938Z,-0.30
2023-01-20T16:19:48.621Z,-0.40
2023-01-20T16:22:15.619Z,-0.50
2023-01-20T16:24:42.766Z,-0.60
2023-01-20T16:27:21.352Z,-0.60
2023-01-20T16:29:49.017Z,-0.60
2023-01-20T16:32:17.816Z,-0.60
2023-01-20T16:34:46.745Z,-0.60
2023-01-20T16:37:14.649Z,-0.60
2023-01-20T16:39:41.855Z,-0.60
2023-01-20T16:42:16.021Z,-0.60
2023-01-20T16:44:42.847Z,-0.60
2023-01-20T16:47:09.665Z,-0.60
2023-01-20T16:49:36.450Z,-0.60
2023-01-20T16:52:03.329Z,-0.60
2023-01-20T16:54:30.183Z,-0.60
2023-01-20T16:56:56.881Z,-0.60
2023-01-20T16:59:23.662Z,-0.60
2023-01-20T17:01:50.377Z,-0.60
2023-01-20T17:04:17.182Z,-0.70
2023-01-20T17:06:43.863Z,-0.70
2023-01-20T17:09:11.479Z,-0.70
2023-01-20T17:11:39.145Z,-0.80
2023-01-20T17:14:07.936Z,-0.80
2023-01-20T17:16:34.992Z,-0.80
2023-01-20T17:19:02.373Z,-0.80
2023-01-20T17:21:31.878Z,-0.90
2023-01-20T17:24:03.641Z,-0.90
2023-01-20T17:26:31.862Z,-0.80
2023-01-20T17:29:04.930Z,-0.90
2023-01-20T17:31:37.211Z,-1.00
2023-01-20T17:34:10.479Z,-1.00
2023-01-20T17:36:38.836Z,-0.80
2023-01-20T17:39:06.752Z,-1.20
2023-01-20T17:41:34.653Z,-1.20
2023-01-20T17:44:02.017Z,-1.30
2023-01-20T17:46:30.789Z,-1.40
2023-01-20T17:49:04.597Z,-1.40
2023-01-20T17:51:34.803Z,-1.50
2023-01-20T17:54:03.765Z,-1.60
2023-01-20T17:56:33.935Z,-1.60
2023-01-20T17:59:01.076Z,-1.70
2023-01-20T18:01:32.777Z,-1.70
2023-01-20T18:04:01.311Z,-1.70
2023-01-20T18:06:28.665Z,-1.70
2023-01-20T18:08:58.424Z,-1.80
2023-01-20T18:11:27.616Z,-1.90
2023-01-20T18:13:56.037Z,-1.90
2023-01-20T18:16:29.301Z,-2.00
2023-01-20T18:18:58.869Z,-2.10
2023-01-20T18:21:30.732Z,-2.20
2023-01-20T18:23:58.532Z,-2.20
2023-01-20T18:26:29.397Z,-2.30
2023-01-20T18:28:58.194Z,-2.30
2023-01-20T18:31:26.615Z,-2.30
2023-01-20T18:33:55.936Z,-2.30
2023-01-20T18:36:31.603Z,-2.30
2023-01-20T18:39:00.663Z,-2.30
2023-01-20T18:41:29.599Z,-2.40
2023-01-20T18:43:57.379Z,-2.40
2023-01-20T18:46:25.644Z,-2.40
2023-01-20T18:48:54.606Z,-2.40
2023-01-20T18:51:27.805Z,-2.40
2023-01-20T18:54:04.892Z,-2.40
2023-01-20T18:56:33.379Z,-2.30
2023-01-20T18:59:00.914Z,-2.20
2023-01-20T19:01:33.919Z,-2.20
2023-01-20T19:04:02.226Z,-2.20
2023-01-20T19:06:31.139Z,-2.10
2023-01-20T19:08:59.014Z,-2.00
2023-01-20T19:11:29.307Z,-2.00
2023-01-20T19:13:56.325Z,-1.90
2023-01-20T19:16:26.369Z,-1.90
2023-01-20T19:18:58.402Z,-1.90
2023-01-20T19:21:27.314Z,-1.90
2023-01-20T19:24:00.363Z,-1.90
2023-01-20T19:26:28.670Z,-1.90
2023-01-20T19:29:02.462Z,-1.80
2023-01-20T19:31:31.185Z,-1.80
2023-01-20T19:33:58.137Z,-1.70
2023-01-20T19:36:25.243Z,-1.70
2023-01-20T19:38:52.456Z,-1.60
2023-01-20T19:41:22.967Z,-1.70
2023-01-20T19:43:55.494Z,-1.60
2023-01-20T19:46:24.405Z,-1.60
2023-01-20T19:48:52.468Z,-1.60
2023-01-20T19:51:19.886Z,-1.60
2023-01-20T19:53:47.190Z,-1.50
2023-01-20T19:56:17.018Z,-1.50
2023-01-20T19:58:45.359Z,-1.50
2023-01-20T20:01:20.313Z,-1.50
2023-01-20T20:03:48.668Z,-1.60
2023-01-20T20:06:32.660Z,-1.50
2023-01-20T20:09:02.014Z,-1.50
2023-01-20T20:11:29.875Z,-1.50
2023-01-20T20:13:59.098Z,-1.50
2023-01-20T20:16:28.887Z,-1.50
2023-01-20T20:18:56.512Z,-1.50
2023-01-20T20:21:23.600Z,-1.50
2023-01-20T20:23:55.656Z,-1.50
2023-01-20T20:26:24.493Z,-1.50
2023-01-20T20:28:51.245Z,-1.50
2023-01-20T20:31:18.577Z,-1.50
2023-01-20T20:33:46.801Z,-1.40
2023-01-20T20:36:15.003Z,-1.40
2023-01-20T20:38:41.935Z,-1.40
2023-01-20T20:41:09.568Z,-1.30
2023-01-20T20:43:37.387Z,-1.30
2023-01-20T20:46:07.779Z,-1.30
2023-01-20T20:48:35.423Z,-1.20
2023-01-20T20:51:20.572Z,-1.20
2023-01-20T20:53:47.346Z,-1.20
2023-01-20T20:56:15.656Z,-1.20
2023-01-20T20:59:00.094Z,-1.20
2023-01-20T21:01:29.370Z,-1.20
2023-01-20T21:03:57.800Z,-1.20
2023-01-20T21:06:25.197Z,-1.30
2023-01-20T21:08:52.345Z,-1.40
2023-01-20T21:11:20.297Z,-1.50
2023-01-20T21:13:49.224Z,-1.50
2023-01-20T21:16:20.781Z,-1.50
2023-01-20T21:18:48.035Z,-1.50
2023-01-20T21:21:17.090Z,-1.50
2023-01-20T21:23:55.502Z,-1.50
2023-01-20T21:26:23.757Z,-1.50
2023-01-20T21:28:51.040Z,-1.50
2023-01-20T21:31:24.623Z,-1.50
2023-01-20T21:33:57.036Z,-1.50
2023-01-20T21:36:24.696Z,-1.60
2023-01-20T21:38:51.860Z,-1.60
2023-01-20T21:41:19.498Z,-1.50
2023-01-20T21:44:06.104Z,-1.60
2023-01-20T21:46:39.341Z,-1.60
2023-01-20T21:49:25.866Z,-1.60
2023-01-20T21:52:11.368Z,-1.60
2023-01-20T21:54:39.850Z,-1.60
2023-01-20T21:57:07.067Z,-1.70
2023-01-20T21:59:33.873Z,-1.70
2023-01-20T22:02:00.682Z,-1.70
2023-01-20T22:04:27.470Z,-1.60
2023-01-20T22:06:54.188Z,-1.60
2023-01-20T22:09:20.959Z,-1.50
2023-01-20T22:11:47.672Z,-1.50
2023-01-20T22:14:14.389Z,-1.40
2023-01-20T22:16:41.158Z,-1.40
2023-01-20T22:19:07.900Z,-1.30
2023-01-20T22:21:34.585Z,-1.30
2023-01-20T22:24:03.116Z,-1.30
2023-01-20T22:26:30.103Z,-1.30
2023-01-20T22:28:57.193Z,-1.30
2023-01-20T22:31:24.971Z,-1.30
2023-01-20T22:33:56.616Z,-1.30
2023-01-20T22:36:24.543Z,-1.20
2023-01-20T22:38:52.841Z,-1.20
2023-01-20T22:41:20.057Z,-1.20
2023-01-20T22:43:48.121Z,-1.20
2023-01-20T22:46:18.156Z,-1.20
2023-01-20T22:48:45.640Z,-1.20
2023-01-20T22:51:13.721Z,-0.80
2023-01-20T22:53:41.060Z,-1.10
2023-01-20T22:56:10.154Z,-1.10
2023-01-20T22:58:37.741Z,-1.10
2023-01-20T23:01:04.922Z,-1.10
2023-01-20T23:03:31.910Z,-1.10
2023-01-20T23:06:00.051Z,-1.10
2023-01-20T23:08:28.682Z,-1.10
2023-01-20T23:11:06.567Z,-1.10
2023-01-20T23:13:35.172Z,-1.10
2023-01-20T23:16:04.614Z,-1.10
2023-01-20T23:18:32.332Z,-1.10
2023-01-20T23:20:59.968Z,-1.00
2023-01-20T23:23:27.557Z,-1.00
2023-01-20T23:26:06.405Z,-1.10
2023-01-20T23:28:35.183Z,-1.00
2023-01-20T23:31:06.972Z,-1.10
2023-01-20T23:33:34.209Z,-1.10
2023-01-20T23:36:10.637Z,-1.10
2023-01-20T23:38:37.699Z,-1.10
2023-01-20T23:41:04.889Z,-1.10
2023-01-20T23:43:32.504Z,-1.10
2023-01-20T23:46:00.829Z,-1.10
2023-01-20T23:48:28.920Z,-1.10
2023-01-20T23:50:56.567Z,-1.10
2023-01-20T23:53:23.458Z,-1.20
2023-01-20T23:55:50.150Z,-1.20
2023-01-20T23:58:16.873Z,-1.20
